createdAt,value
2018-04-26T00:00:08.126Z,4.40
2018-04-26T00:03:10.613Z,3.53
2018-04-26T00:06:08.807Z,3.70
2018-04-26T00:09:07.024Z,3.53
2018-04-26T00:12:06.702Z,3.73
2018-04-26T00:15:11.568Z,3.20
2018-04-26T00:18:14.933Z,3.23
2018-04-26T00:21:13.266Z,3.80
2018-04-26T00:24:12.633Z,3.90
2018-04-26T00:27:11.659Z,3.47
2018-04-26T00:30:10.648Z,3.03
2018-04-26T00:33:09.400Z,3.83
2018-04-26T00:36:10.185Z,3.73
2018-04-26T00:39:09.694Z,3.37
2018-04-26T00:42:08.293Z,3.50
2018-04-26T00:45:06.324Z,3.57
2018-04-26T00:48:10.853Z,3.47
2018-04-26T00:51:09.282Z,3.43
2018-04-26T00:54:10.357Z,3.40
2018-04-26T00:57:09.314Z,3.63
2018-04-26T01:00:11.486Z,3.27
2018-04-26T01:03:11.439Z,3.60
2018-04-26T01:06:14.237Z,3.90
2018-04-26T01:09:12.787Z,3.37
2018-04-26T01:12:12.188Z,3.20
2018-04-26T01:15:09.987Z,3.70
2018-04-26T01:18:13.458Z,4.23
2018-04-26T01:21:15.743Z,3.40
2018-04-26T01:24:13.944Z,4.00
2018-04-26T01:27:13.037Z,3.00
2018-04-26T01:30:12.153Z,3.83
2018-04-26T01:33:10.920Z,4.07
2018-04-26T01:36:14.002Z,2.90
2018-04-26T01:39:17.119Z,2.83
2018-04-26T01:42:20.244Z,3.00
2018-04-26T01:45:18.579Z,2.80
2018-04-26T01:48:32.302Z,2.97
2018-04-26T01:51:32.702Z,2.73
2018-04-26T01:54:30.811Z,3.00
2018-04-26T01:57:29.793Z,3.33
2018-04-26T02:00:27.494Z,3.03
2018-04-26T02:03:26.862Z,2.67
2018-04-26T02:06:28.556Z,3.03
2018-04-26T02:09:28.121Z,3.43
2018-04-26T02:12:26.014Z,3.33
2018-04-26T02:15:25.612Z,3.53
2018-04-26T02:18:26.475Z,3.90
2018-04-26T02:21:29.257Z,3.13
2018-04-26T02:24:32.249Z,3.70
2018-04-26T02:27:33.780Z,3.33
2018-04-26T02:30:33.168Z,3.47
2018-04-26T02:33:31.659Z,2.80
2018-04-26T02:36:35.629Z,2.80
2018-04-26T02:39:35.718Z,3.03
2018-04-26T02:42:37.104Z,3.60
2018-04-26T02:45:36.491Z,3.10
2018-04-26T02:48:34.478Z,3.20
2018-04-26T02:51:35.630Z,3.03
2018-04-26T02:54:37.648Z,3.83
2018-04-26T02:57:37.010Z,3.03
2018-04-26T03:00:36.256Z,3.00
2018-04-26T03:03:35.329Z,2.93
2018-04-26T03:06:34.609Z,3.23
2018-04-26T03:09:32.573Z,3.03
2018-04-26T03:12:30.763Z,3.17
2018-04-26T03:15:28.518Z,3.33
2018-04-26T03:18:26.910Z,3.13
2018-04-26T03:21:27.760Z,2.60
2018-04-26T03:24:28.736Z,3.10
2018-04-26T03:27:26.496Z,3.20
2018-04-26T03:30:26.257Z,3.20
2018-04-26T03:33:26.361Z,3.10
2018-04-26T03:36:24.342Z,3.30
2018-04-26T03:39:25.112Z,3.43
2018-04-26T03:42:28.537Z,4.57
2018-04-26T03:45:27.572Z,3.27
2018-04-26T03:48:25.430Z,3.60
2018-04-26T03:51:23.742Z,3.30
2018-04-26T03:54:25.294Z,3.47
2018-04-26T03:57:28.200Z,3.70
2018-04-26T04:00:40.403Z,2.90
2018-04-26T04:03:53.427Z,3.23
2018-04-26T04:06:52.961Z,3.10
2018-04-26T04:09:52.426Z,3.50
2018-04-26T04:12:54.528Z,3.67
2018-04-26T04:15:55.757Z,3.60
2018-04-26T04:18:53.751Z,3.20
2018-04-26T04:21:53.870Z,3.17
2018-04-26T04:24:56.445Z,4.17
2018-04-26T04:27:56.256Z,3.27
2018-04-26T04:30:54.881Z,3.20
2018-04-26T04:33:53.915Z,3.03
2018-04-26T04:36:52.299Z,3.87
2018-04-26T04:39:51.341Z,4.03
2018-04-26T04:42:51.861Z,3.27
2018-04-26T04:45:49.949Z,3.53
2018-04-26T04:48:50.333Z,3.47
2018-04-26T04:51:48.453Z,3.60
2018-04-26T04:54:55.961Z,3.87
2018-04-26T04:57:57.117Z,3.27
2018-04-26T05:01:01.073Z,3.40
2018-04-26T05:03:59.152Z,3.70
2018-04-26T05:06:56.860Z,4.13
2018-04-26T05:09:57.007Z,3.63
2018-04-26T05:12:58.464Z,3.53
2018-04-26T05:16:02.326Z,3.13
2018-04-26T05:19:00.152Z,3.50
2018-04-26T05:22:03.098Z,3.87
2018-04-26T05:25:05.927Z,4.03
2018-04-26T05:28:06.865Z,3.70
2018-04-26T05:31:09.382Z,3.17
2018-04-26T05:34:13.903Z,3.90
2018-04-26T05:37:14.444Z,3.87
2018-04-26T05:43:22.653Z,3.37
2018-04-26T05:46:22.985Z,3.73
2018-04-26T05:49:22.035Z,4.53
2018-04-26T05:52:22.830Z,3.87
2018-04-26T05:55:24.858Z,3.20
2018-04-26T05:58:22.976Z,2.97
2018-04-26T06:01:25.520Z,3.70
2018-04-26T06:04:24.045Z,3.40
2018-04-26T06:07:27.927Z,3.30
2018-04-26T06:10:25.950Z,3.67
2018-04-26T06:13:25.847Z,3.70
2018-04-26T06:16:29.146Z,3.83
2018-04-26T06:19:31.061Z,3.43
2018-04-26T06:22:32.039Z,2.93
2018-04-26T06:25:30.048Z,3.70
2018-04-26T06:28:35.178Z,3.27
2018-04-26T06:31:34.105Z,3.00
2018-04-26T06:34:32.951Z,3.70
2018-04-26T06:37:32.193Z,3.37
2018-04-26T06:40:35.949Z,3.63
2018-04-26T06:43:35.885Z,3.17
2018-04-26T06:46:36.293Z,3.10
2018-04-26T06:49:38.879Z,3.60
2018-04-26T06:52:39.384Z,3.33
2018-04-26T06:55:38.313Z,2.97
2018-04-26T06:58:39.261Z,3.40
2018-04-26T07:01:37.270Z,2.93
2018-04-26T07:04:37.424Z,3.60
2018-04-26T07:07:35.662Z,3.77
2018-04-26T07:10:41.124Z,3.60
2018-04-26T07:13:44.705Z,3.30
2018-04-26T07:16:42.527Z,3.40
2018-04-26T07:19:40.749Z,3.37
2018-04-26T07:22:43.413Z,4.00
2018-04-26T07:25:45.982Z,3.30
2018-04-26T07:28:52.099Z,3.67
2018-04-26T07:32:00.169Z,3.40
2018-04-26T07:35:04.585Z,3.07
2018-04-26T07:38:07.256Z,3.53
2018-04-26T07:41:04.806Z,3.67
2018-04-26T07:44:03.846Z,3.33
2018-04-26T07:47:01.977Z,3.40
2018-04-26T07:50:06.692Z,3.00
2018-04-26T07:53:08.717Z,3.13
2018-04-26T07:56:07.618Z,3.20
2018-04-26T07:59:08.735Z,3.03
2018-04-26T08:02:11.322Z,3.10
2018-04-26T08:05:12.740Z,3.00
2018-04-26T08:08:15.662Z,3.40
2018-04-26T08:11:15.565Z,2.67
2018-04-26T08:14:22.575Z,3.67
2018-04-26T08:17:20.631Z,3.20
2018-04-26T08:20:19.665Z,3.27
2018-04-26T08:23:18.840Z,3.97
2018-04-26T08:26:18.513Z,3.20
2018-04-26T08:29:22.345Z,3.37
2018-04-26T08:32:20.056Z,3.00
2018-04-26T08:35:18.059Z,2.90
2018-04-26T08:38:16.085Z,2.77
2018-04-26T08:41:17.340Z,2.97
2018-04-26T08:44:15.023Z,3.03
2018-04-26T08:47:13.734Z,3.33
2018-04-26T08:50:14.822Z,2.73
2018-04-26T08:53:15.950Z,3.20
2018-04-26T08:56:17.044Z,2.77
2018-04-26T08:59:18.237Z,3.23
2018-04-26T09:02:24.585Z,3.30
2018-04-26T09:05:27.437Z,2.73
2018-04-26T09:08:25.282Z,2.93
2018-04-26T09:11:23.348Z,3.10
2018-04-26T09:14:23.274Z,2.47
2018-04-26T09:17:28.127Z,2.97
2018-04-26T09:20:26.293Z,2.87
2018-04-26T09:23:24.337Z,3.10
2018-04-26T09:26:22.309Z,2.30
2018-04-26T09:29:32.349Z,2.70
2018-04-26T09:32:30.230Z,2.50
2018-04-26T09:35:34.270Z,2.60
2018-04-26T09:38:33.324Z,3.00
2018-04-26T09:41:33.073Z,3.00
2018-04-26T09:44:39.096Z,2.33
2018-04-26T09:47:39.134Z,2.60
2018-04-26T09:50:39.508Z,2.90
2018-04-26T09:53:39.783Z,2.37
2018-04-26T09:56:41.713Z,2.73
2018-04-26T09:59:46.377Z,2.30
2018-04-26T10:02:50.697Z,2.47
2018-04-26T10:05:55.742Z,2.87
2018-04-26T10:08:54.890Z,2.50
2018-04-26T10:11:55.626Z,2.73
2018-04-26T10:14:53.736Z,2.97
2018-04-26T10:17:54.825Z,2.80
2018-04-26T10:20:58.637Z,2.37
2018-04-26T10:24:01.794Z,2.30
2018-04-26T10:27:01.735Z,2.27
2018-04-26T10:30:05.006Z,2.33
2018-04-26T10:33:05.926Z,2.60
2018-04-26T10:36:06.756Z,1.97
2018-04-26T10:39:07.955Z,2.73
2018-04-26T10:42:08.749Z,2.40
2018-04-26T10:48:23.637Z,2.87
2018-04-26T10:51:26.373Z,2.63
2018-04-26T10:54:33.046Z,2.90
2018-04-26T10:57:34.452Z,3.13
2018-04-26T11:00:41.335Z,2.47
2018-04-26T11:03:33.328Z,2.50
2018-04-26T11:06:27.902Z,2.40
2018-04-26T11:09:23.921Z,2.20
2018-04-26T11:12:18.186Z,2.90
2018-04-26T11:15:12.964Z,2.50
2018-04-26T11:18:05.513Z,2.60
2018-04-26T11:21:00.893Z,2.37
2018-04-26T11:23:52.852Z,2.70
2018-04-26T11:26:47.058Z,2.97
2018-04-26T11:29:41.368Z,2.57
2018-04-26T11:32:35.601Z,2.50
2018-04-26T11:35:27.934Z,2.37
2018-04-26T11:38:21.926Z,2.17
2018-04-26T11:41:19.804Z,2.00
2018-04-26T11:44:12.348Z,2.20
2018-04-26T11:47:06.209Z,2.13
2018-04-26T11:49:58.551Z,1.90
2018-04-26T11:52:55.507Z,2.25
2018-04-26T11:55:49.879Z,1.53
2018-04-26T11:58:43.214Z,2.17
2018-04-26T12:01:40.777Z,2.10
2018-04-26T12:04:37.249Z,2.23
2018-04-26T12:07:41.140Z,2.33
2018-04-26T12:10:36.854Z,2.37
2018-04-26T12:13:33.898Z,1.93
2018-04-26T12:16:28.941Z,1.77
2018-04-26T12:19:26.261Z,1.90
2018-04-26T12:22:18.918Z,1.87
2018-04-26T12:25:11.073Z,1.90
2018-04-26T12:28:04.022Z,1.80
2018-04-26T12:30:59.798Z,1.30
2018-04-26T12:33:53.680Z,1.47
2018-04-26T12:36:48.711Z,1.70
2018-04-26T12:39:43.738Z,1.57
2018-04-26T12:42:40.648Z,1.47
2018-04-26T12:45:32.063Z,1.30
2018-04-26T12:48:23.958Z,1.53
2018-04-26T12:51:16.083Z,1.73
2018-04-26T12:54:10.666Z,1.60
2018-04-26T12:57:05.491Z,1.70
2018-04-26T12:59:58.212Z,1.67
2018-04-26T13:02:53.474Z,1.60
2018-04-26T13:05:47.015Z,1.80
2018-04-26T13:08:39.850Z,1.60
2018-04-26T13:11:32.022Z,1.50
2018-04-26T13:14:25.893Z,2.00
2018-04-26T13:17:17.403Z,1.47
2018-04-26T13:20:09.121Z,1.43
2018-04-26T13:23:01.946Z,1.50
2018-04-26T13:26:00.125Z,1.70
2018-04-26T13:28:51.778Z,1.67
2018-04-26T13:31:48.197Z,1.70
2018-04-26T13:34:43.921Z,1.90
2018-04-26T13:37:37.092Z,1.60
2018-04-26T13:40:36.023Z,1.67
2018-04-26T13:43:35.310Z,1.60
2018-04-26T13:46:38.916Z,1.13
2018-04-26T13:49:46.826Z,1.23
2018-04-26T13:52:51.074Z,1.00
2018-04-26T13:55:55.978Z,2.17
2018-04-26T13:59:02.562Z,1.80
2018-04-26T14:02:09.250Z,1.37
2018-04-26T14:05:23.379Z,1.70
2018-04-26T14:08:27.820Z,1.60
2018-04-26T14:11:25.828Z,1.57
2018-04-26T14:14:31.242Z,1.63
2018-04-26T14:17:29.736Z,1.00
2018-04-26T14:20:30.769Z,1.43
2018-04-26T14:23:34.644Z,1.87
2018-04-26T14:26:35.950Z,1.87
2018-04-26T14:29:38.956Z,2.07
2018-04-26T14:32:42.571Z,1.90
2018-04-26T14:35:42.017Z,1.90
2018-04-26T14:38:48.954Z,2.10
2018-04-26T14:41:55.895Z,1.80
2018-04-26T14:44:55.150Z,2.30
2018-04-26T14:47:53.239Z,1.83
2018-04-26T14:50:54.816Z,1.60
2018-04-26T14:53:59.746Z,2.00
2018-04-26T14:56:58.505Z,2.20
2018-04-26T15:00:00.236Z,2.07
2018-04-26T15:03:00.118Z,1.80
2018-04-26T15:05:58.276Z,2.13
2018-04-26T15:08:58.179Z,1.97
2018-04-26T15:11:56.778Z,1.87
2018-04-26T15:14:55.182Z,2.07
2018-04-26T15:21:01.969Z,1.47
2018-04-26T15:24:07.618Z,2.00
2018-04-26T15:27:12.482Z,1.70
2018-04-26T15:33:27.141Z,1.87
2018-04-26T15:36:29.322Z,1.67
2018-04-26T15:39:31.848Z,1.30
2018-04-26T15:42:34.088Z,1.67
2018-04-26T15:45:36.178Z,1.30
2018-04-26T15:48:37.816Z,1.50
2018-04-26T15:51:44.155Z,2.20
2018-04-26T15:54:56.442Z,2.07
2018-04-26T16:01:16.536Z,2.17
2018-04-26T16:04:03.348Z,2.00
2018-04-26T16:06:42.610Z,2.00
2018-04-26T16:09:22.375Z,2.50
2018-04-26T16:12:06.344Z,2.50
2018-04-26T16:14:46.642Z,3.10
2018-04-26T16:17:32.049Z,2.90
2018-04-26T16:20:19.761Z,3.57
2018-04-26T16:23:06.114Z,2.77
2018-04-26T16:25:45.368Z,3.07
2018-04-26T16:28:32.624Z,2.90
2018-04-26T16:31:20.502Z,3.10
2018-04-26T16:34:11.404Z,3.13
2018-04-26T16:36:53.045Z,3.43
2018-04-26T16:39:21.202Z,2.80
2018-04-26T16:41:56.137Z,3.37
2018-04-26T16:44:27.120Z,2.50
2018-04-26T16:46:55.944Z,2.90
2018-04-26T16:49:23.913Z,2.80
2018-04-26T16:51:52.734Z,2.87
2018-04-26T16:54:21.392Z,2.47
2018-04-26T16:56:52.723Z,2.80
2018-04-26T16:59:28.755Z,2.63
2018-04-26T17:01:57.449Z,3.10
2018-04-26T17:04:27.262Z,3.17
2018-04-26T17:06:55.133Z,2.77
2018-04-26T17:09:23.964Z,3.00
2018-04-26T17:11:52.328Z,2.50
2018-04-26T17:14:20.339Z,2.83
2018-04-26T17:16:51.752Z,2.67
2018-04-26T17:19:26.756Z,3.00
2018-04-26T17:22:02.016Z,2.60
2018-04-26T17:24:37.324Z,2.27
2018-04-26T17:27:12.678Z,2.80
2018-04-26T17:29:45.756Z,2.67
2018-04-26T17:32:14.752Z,2.90
2018-04-26T17:34:42.332Z,2.73
2018-04-26T17:37:51.222Z,2.63
2018-04-26T17:40:20.836Z,2.70
2018-04-26T17:42:49.010Z,2.60
2018-04-26T17:45:16.576Z,2.80
2018-04-26T17:47:44.905Z,3.30
2018-04-26T17:50:12.451Z,3.30
2018-04-26T17:52:40.020Z,2.80
2018-04-26T17:55:08.351Z,3.03
2018-04-26T17:57:36.696Z,2.63
2018-04-26T18:00:10.737Z,3.07
2018-04-26T18:02:46.939Z,3.10
2018-04-26T18:05:20.345Z,3.30
2018-04-26T18:08:08.960Z,2.90
2018-04-26T18:10:37.253Z,3.17
2018-04-26T18:13:06.948Z,3.33
2018-04-26T18:15:42.728Z,3.20
2018-04-26T18:18:17.157Z,3.30
2018-04-26T18:20:50.387Z,3.27
2018-04-26T18:23:24.680Z,3.43
2018-04-26T18:26:00.278Z,3.33
2018-04-26T18:28:34.579Z,3.27
2018-04-26T18:31:11.283Z,3.00
2018-04-26T18:33:39.994Z,3.63
2018-04-26T18:36:07.557Z,3.40
2018-04-26T18:38:35.992Z,3.50
2018-04-26T18:41:03.918Z,3.50
2018-04-26T18:43:34.706Z,3.13
2018-04-26T18:46:02.998Z,3.03
2018-04-26T18:48:31.308Z,2.90
2018-04-26T18:50:59.669Z,3.50
2018-04-26T18:53:27.673Z,3.00
2018-04-26T18:55:56.598Z,3.07
2018-04-26T18:58:29.321Z,2.93
2018-04-26T19:00:57.201Z,3.70
2018-04-26T19:03:25.849Z,3.00
2018-04-26T19:05:53.391Z,3.37
2018-04-26T19:08:21.629Z,3.60
2018-04-26T19:10:54.948Z,3.43
2018-04-26T19:13:30.007Z,3.93
2018-04-26T19:16:02.091Z,3.60
2018-04-26T19:18:38.337Z,3.23
2018-04-26T19:21:06.191Z,3.30
2018-04-26T19:23:33.727Z,3.37
2018-04-26T19:26:01.276Z,3.10
2018-04-26T19:28:30.227Z,3.63
2018-04-26T19:30:58.364Z,3.40
2018-04-26T19:33:26.517Z,3.50
2018-04-26T19:35:55.018Z,3.20
2018-04-26T19:38:23.169Z,3.87
2018-04-26T19:40:51.208Z,3.70
2018-04-26T19:43:22.418Z,3.70
2018-04-26T19:45:57.111Z,3.73
2018-04-26T19:48:25.413Z,3.30
2018-04-26T19:50:56.068Z,3.17
2018-04-26T19:53:25.778Z,3.13
2018-04-26T19:55:53.333Z,3.67
2018-04-26T19:58:20.878Z,3.40
2018-04-26T20:00:48.695Z,3.00
2018-04-26T20:03:23.207Z,3.40
2018-04-26T20:05:54.393Z,3.20
2018-04-26T20:08:27.755Z,3.33
2018-04-26T20:11:02.491Z,2.90
2018-04-26T20:13:36.235Z,2.93
2018-04-26T20:16:06.160Z,2.70
2018-04-26T20:18:34.308Z,2.93
2018-04-26T20:21:03.941Z,3.67
2018-04-26T20:23:31.543Z,3.93
2018-04-26T20:26:02.031Z,3.10
2018-04-26T20:28:34.595Z,3.80
2018-04-26T20:31:02.571Z,3.20
2018-04-26T20:33:30.107Z,3.20
2018-04-26T20:35:57.720Z,3.10
2018-04-26T20:38:33.630Z,2.80
2018-04-26T20:41:01.965Z,3.07
2018-04-26T20:43:29.757Z,3.10
2018-04-26T20:45:57.330Z,3.13
2018-04-26T20:48:37.034Z,3.33
2018-04-26T20:51:06.485Z,3.40
2018-04-26T20:53:34.467Z,3.50
2018-04-26T20:56:02.035Z,3.27
2018-04-26T20:58:31.059Z,3.30
2018-04-26T21:01:00.958Z,3.57
2018-04-26T21:03:28.555Z,3.57
2018-04-26T21:05:57.500Z,4.10
2018-04-26T21:08:30.958Z,4.27
2018-04-26T21:10:59.487Z,4.33
2018-04-26T21:13:33.325Z,3.20
2018-04-26T21:16:03.832Z,3.13
2018-04-26T21:18:39.970Z,3.23
2018-04-26T21:21:13.647Z,3.07
2018-04-26T21:23:41.684Z,3.43
2018-04-26T21:26:10.113Z,3.20
2018-04-26T21:28:37.729Z,2.97
2018-04-26T21:31:05.222Z,2.93
2018-04-26T21:33:37.386Z,3.17
2018-04-26T21:36:04.938Z,3.17
2018-04-26T21:38:32.852Z,2.80
2018-04-26T21:41:25.378Z,2.70
2018-04-26T21:43:56.238Z,2.53
2018-04-26T21:46:23.765Z,2.63
2018-04-26T21:48:52.599Z,2.73
2018-04-26T21:51:26.207Z,3.10
2018-04-26T21:54:01.306Z,3.13
2018-04-26T21:56:35.533Z,2.90
2018-04-26T21:59:09.380Z,2.60
2018-04-26T22:01:45.412Z,2.97
2018-04-26T22:04:20.844Z,2.80
2018-04-26T22:06:50.555Z,2.97
2018-04-26T22:09:20.447Z,2.70
2018-04-26T22:12:26.742Z,2.47
2018-04-26T22:14:56.226Z,2.93
2018-04-26T22:17:29.404Z,2.70
2018-04-26T22:20:00.885Z,2.83
2018-04-26T22:22:30.137Z,3.30
2018-04-26T22:24:57.914Z,3.43
2018-04-26T22:27:25.445Z,3.07
2018-04-26T22:29:54.449Z,3.00
2018-04-26T22:32:24.357Z,3.10
2018-04-26T22:34:51.933Z,3.07
2018-04-26T22:37:19.464Z,3.27
2018-04-26T22:39:47.002Z,2.80
2018-04-26T22:42:15.345Z,2.83
2018-04-26T22:44:43.621Z,3.03
2018-04-26T22:47:12.784Z,3.00
2018-04-26T22:49:41.844Z,2.90
2018-04-26T22:52:09.405Z,3.43
2018-04-26T22:54:37.683Z,3.00
2018-04-26T22:57:05.731Z,2.60
2018-04-26T22:59:34.860Z,3.57
2018-04-26T23:02:02.401Z,3.53
2018-04-26T23:04:30.309Z,3.50
2018-04-26T23:06:59.211Z,3.40
2018-04-26T23:09:27.011Z,3.37
2018-04-26T23:11:54.866Z,3.60
2018-04-26T23:14:22.405Z,3.43
2018-04-26T23:16:49.937Z,3.20
2018-04-26T23:19:17.541Z,3.70
2018-04-26T23:21:45.846Z,3.70
2018-04-26T23:24:14.890Z,3.50
2018-04-26T23:26:43.204Z,3.57
2018-04-26T23:29:11.363Z,3.57
2018-04-26T23:31:38.918Z,3.70
2018-04-26T23:34:06.448Z,3.37
2018-04-26T23:36:34.248Z,3.47
2018-04-26T23:39:03.683Z,3.20
2018-04-26T23:41:31.589Z,3.87
2018-04-26T23:44:00.371Z,3.10
2018-04-26T23:46:28.137Z,3.37
2018-04-26T23:48:56.935Z,3.10
2018-04-26T23:51:24.486Z,3.10
2018-04-26T23:53:53.243Z,3.47
2018-04-26T23:56:21.620Z,3.50
2018-04-26T23:59:25.634Z,3.00
